Terminal Aerodrome Forecast
Issued by NWS

Home | Current Version | Previous Version | Text Only | Print | Product List | Glossary On
Versions: 1 2 3 4 5 6 7 8 9 10 11 12 13 14
000
FTUS43 KEAX 291600 AAA
TAFMKC
TAF AMD
KMKC 291635Z 2917/3012 21010KT 5SM SHRA BKN040
      TEMPO 2917/2919 2SM +SHRA
     FM292100 22010KT 5SM -TSRA BKN050CB
     FM300200 23005KT P6SM BKN100=

USA.gov is the U.S. government's official web portal to all federal, state and local government web resources and services.